createdAt,value
2023-04-10T00:00:33.725Z,6.26
2023-04-10T00:01:36.580Z,6.23
2023-04-10T00:02:39.269Z,6.26
2023-04-10T00:04:57.177Z,6.15
2023-04-10T00:05:59.770Z,6.15
2023-04-10T00:07:02.307Z,6.14
2023-04-10T00:08:04.932Z,6.12
2023-04-10T00:09:08.049Z,6.10
2023-04-10T00:10:11.059Z,6.12
2023-04-10T00:11:13.699Z,6.12
2023-04-10T00:12:16.335Z,6.13
2023-04-10T00:13:18.740Z,6.15
2023-04-10T00:14:23.420Z,6.10
2023-04-10T00:15:26.091Z,6.04
2023-04-10T00:16:28.651Z,5.99
2023-04-10T00:17:31.253Z,5.97
2023-04-10T00:18:33.736Z,5.92
2023-04-10T00:19:36.395Z,5.92
2023-04-10T00:20:38.898Z,5.90
2023-04-10T00:21:41.690Z,5.84
2023-04-10T00:22:44.178Z,5.88
2023-04-10T00:23:46.723Z,5.86
2023-04-10T00:24:49.221Z,5.87
2023-04-10T00:25:51.823Z,5.88
2023-04-10T00:26:54.388Z,5.91
2023-04-10T00:27:56.908Z,5.87
2023-04-10T00:28:59.549Z,5.80
2023-04-10T00:30:02.787Z,5.82
2023-04-10T00:31:05.788Z,5.86
2023-04-10T00:32:08.602Z,5.82
2023-04-10T00:33:11.281Z,5.76
2023-04-10T00:34:14.273Z,5.73
2023-04-10T00:35:16.959Z,5.77
2023-04-10T00:36:19.750Z,5.80
2023-04-10T00:37:22.350Z,5.80
2023-04-10T00:38:24.874Z,5.85
2023-04-10T00:39:27.520Z,5.89
2023-04-10T00:40:30.541Z,5.94
2023-04-10T00:41:33.525Z,5.96
2023-04-10T00:42:36.036Z,5.94
2023-04-10T00:43:39.401Z,6.02
2023-04-10T00:44:42.035Z,6.02
2023-04-10T00:45:44.834Z,6.03
2023-04-10T00:46:47.323Z,6.01
2023-04-10T00:47:49.997Z,6.10
2023-04-10T00:48:53.318Z,6.16
2023-04-10T00:49:55.968Z,6.15
2023-04-10T00:50:58.478Z,6.18
2023-04-10T00:52:01.496Z,6.16
2023-04-10T00:53:04.242Z,6.18
2023-04-10T00:54:06.881Z,6.19
2023-04-10T00:55:11.204Z,6.24
2023-04-10T00:56:14.561Z,6.27
2023-04-10T00:57:17.924Z,6.36
2023-04-10T00:58:20.446Z,6.39
2023-04-10T00:59:23.204Z,6.42
2023-04-10T01:00:26.158Z,6.42
2023-04-10T01:01:28.804Z,6.42
2023-04-10T01:02:32.489Z,6.46
2023-04-10T01:03:35.987Z,6.46
2023-04-10T01:04:39.888Z,6.47
2023-04-10T01:05:51.646Z,6.61
2023-04-10T01:07:10.368Z,6.55
2023-04-10T01:08:39.408Z,6.60
2023-04-10T01:09:47.716Z,6.58
2023-04-10T01:11:25.140Z,6.63
2023-04-10T01:12:56.337Z,6.75
2023-04-10T01:14:16.613Z,6.75
2023-04-10T01:15:22.490Z,6.72
2023-04-10T01:16:34.896Z,6.85
2023-04-10T01:17:40.564Z,6.87
2023-04-10T01:19:18.902Z,6.81
2023-04-10T01:20:24.068Z,6.79
2023-04-10T01:21:28.255Z,6.81
2023-04-10T01:22:59.696Z,6.87
2023-04-10T01:24:29.820Z,6.85
2023-04-10T01:25:56.459Z,6.92
2023-04-10T01:27:20.581Z,6.86
2023-04-10T01:28:51.790Z,6.86
2023-04-10T01:29:58.025Z,6.88
2023-04-10T01:31:02.902Z,6.94
2023-04-10T01:32:11.708Z,6.96
2023-04-10T01:33:18.925Z,6.97
2023-04-10T01:34:39.263Z,7.02
2023-04-10T01:35:44.305Z,6.97
2023-04-10T01:36:52.270Z,6.98
2023-04-10T01:37:56.230Z,6.89
2023-04-10T01:38:59.113Z,6.85
2023-04-10T01:40:04.150Z,6.90
2023-04-10T01:41:07.750Z,6.84
2023-04-10T01:42:14.487Z,6.87
2023-04-10T01:43:19.874Z,6.84
2023-04-10T01:44:30.324Z,6.92
2023-04-10T01:45:33.807Z,6.80
2023-04-10T01:46:38.520Z,6.83
2023-04-10T01:47:41.166Z,6.69
2023-04-10T01:48:45.076Z,6.67
2023-04-10T01:49:50.119Z,6.64
2023-04-10T01:50:54.201Z,6.57
2023-04-10T01:51:58.767Z,6.61
2023-04-10T01:53:05.970Z,6.66
2023-04-10T01:54:09.223Z,6.58
2023-04-10T01:55:12.319Z,6.56
2023-04-10T01:56:20.613Z,6.51
2023-04-10T01:57:23.602Z,6.49
2023-04-10T01:58:29.248Z,6.43
2023-04-10T01:59:32.966Z,6.45
2023-04-10T02:00:43.509Z,6.54
2023-04-10T02:01:47.570Z,6.37
2023-04-10T02:02:51.106Z,6.39
2023-04-10T02:03:54.018Z,6.41
2023-04-10T02:04:56.885Z,6.39
2023-04-10T02:06:20.979Z,6.49
2023-04-10T02:07:31.651Z,6.51
2023-04-10T02:08:42.820Z,6.50
2023-04-10T02:10:00.697Z,6.49
2023-04-10T02:11:22.895Z,6.55
2023-04-10T02:12:30.456Z,6.45
2023-04-10T02:13:35.860Z,6.43
2023-04-10T02:14:43.062Z,6.48
2023-04-10T02:15:47.904Z,6.42
2023-04-10T02:16:54.583Z,6.38
2023-04-10T02:18:00.020Z,6.43
2023-04-10T02:19:04.055Z,6.33
2023-04-10T02:20:09.234Z,6.40
2023-04-10T02:21:11.876Z,6.28
2023-04-10T02:22:17.738Z,6.25
2023-04-10T02:23:21.246Z,6.27
2023-04-10T02:24:23.874Z,6.17
2023-04-10T02:25:26.500Z,6.18
2023-04-10T02:26:29.031Z,6.17
2023-04-10T02:27:36.567Z,6.18
2023-04-10T02:28:40.320Z,6.09
2023-04-10T02:29:42.823Z,6.01
2023-04-10T02:30:45.462Z,6.00
2023-04-10T02:31:49.216Z,5.96
2023-04-10T02:32:51.909Z,5.88
2023-04-10T02:33:54.624Z,5.94
2023-04-10T02:34:57.706Z,5.91
2023-04-10T02:36:03.130Z,6.01
2023-04-10T02:37:05.627Z,5.90
2023-04-10T02:38:08.185Z,5.89
2023-04-10T02:39:13.204Z,5.99
2023-04-10T02:40:23.754Z,6.00
2023-04-10T02:41:38.628Z,5.99
2023-04-10T02:42:41.638Z,5.97
2023-04-10T02:43:44.166Z,5.92
2023-04-10T02:44:48.236Z,5.88
2023-04-10T02:45:51.374Z,5.78
2023-04-10T02:47:01.527Z,5.71
2023-04-10T02:48:07.015Z,5.73
2023-04-10T02:49:09.969Z,5.71
2023-04-10T02:50:12.492Z,5.70
2023-04-10T02:51:18.599Z,5.75
2023-04-10T02:52:21.605Z,5.70
2023-04-10T02:53:26.158Z,5.70
2023-04-10T02:54:32.519Z,5.69
2023-04-10T02:55:35.043Z,5.69
2023-04-10T02:56:37.681Z,5.60
2023-04-10T02:57:40.022Z,5.57
2023-04-10T02:58:46.208Z,5.60
2023-04-10T02:59:52.457Z,5.81
2023-04-10T03:00:57.966Z,5.69
2023-04-10T03:02:21.902Z,5.74
2023-04-10T03:03:25.182Z,5.78
2023-04-10T03:04:32.696Z,5.84
2023-04-10T03:05:35.771Z,5.71
2023-04-10T03:06:38.421Z,5.75
2023-04-10T03:07:41.662Z,5.84
2023-04-10T03:08:44.651Z,5.88
2023-04-10T03:09:47.528Z,5.87
2023-04-10T03:10:50.804Z,5.89
2023-04-10T03:11:53.301Z,5.85
2023-04-10T03:12:56.175Z,5.91
2023-04-10T03:13:58.701Z,5.97
2023-04-10T03:15:01.333Z,5.97
2023-04-10T03:16:04.064Z,5.91
2023-04-10T03:17:07.583Z,5.89
2023-04-10T03:18:11.336Z,5.93
2023-04-10T03:19:16.460Z,6.01
2023-04-10T03:20:18.978Z,5.99
2023-04-10T03:21:22.097Z,6.01
2023-04-10T03:22:24.979Z,5.96
2023-04-10T03:23:27.623Z,5.96
2023-04-10T03:24:30.509Z,5.93
2023-04-10T03:25:36.632Z,6.09
2023-04-10T03:26:40.939Z,5.93
2023-04-10T03:27:43.470Z,5.86
2023-04-10T03:28:45.983Z,5.89
2023-04-10T03:29:48.388Z,5.97
2023-04-10T03:30:51.263Z,5.96
2023-04-10T03:31:53.841Z,5.98
2023-04-10T03:32:56.440Z,5.94
2023-04-10T03:33:59.068Z,5.94
2023-04-10T03:35:01.596Z,5.94
2023-04-10T03:36:05.112Z,5.94
2023-04-10T03:37:08.910Z,5.90
2023-04-10T03:38:11.434Z,5.88
2023-04-10T03:39:13.832Z,5.94
2023-04-10T03:40:16.359Z,5.93
2023-04-10T03:41:18.995Z,5.94
2023-04-10T03:42:21.512Z,5.89
2023-04-10T03:43:25.591Z,5.98
2023-04-10T03:44:28.118Z,5.90
2023-04-10T03:45:30.873Z,5.84
2023-04-10T03:46:35.391Z,5.93
2023-04-10T03:47:38.020Z,5.94
2023-04-10T03:48:43.247Z,5.93
2023-04-10T03:49:46.232Z,5.89
2023-04-10T03:50:48.770Z,5.87
2023-04-10T03:51:51.637Z,5.85
2023-04-10T03:52:54.043Z,5.77
2023-04-10T03:53:58.489Z,5.77
2023-04-10T03:55:00.906Z,5.77
2023-04-10T03:56:04.360Z,5.79
2023-04-10T03:57:06.881Z,5.88
2023-04-10T03:58:09.525Z,5.92
2023-04-10T03:59:13.121Z,5.97
2023-04-10T04:00:17.330Z,5.91
2023-04-10T04:01:22.994Z,5.92
2023-04-10T04:02:52.094Z,5.88
2023-04-10T04:04:33.254Z,5.94
2023-04-10T04:05:54.646Z,5.89
2023-04-10T04:07:17.336Z,5.96
2023-04-10T04:08:32.929Z,5.96
2023-04-10T04:09:48.049Z,5.86
2023-04-10T04:10:58.968Z,5.83
2023-04-10T04:12:30.657Z,5.80
2023-04-10T04:13:37.612Z,5.83
2023-04-10T04:14:46.850Z,5.90
2023-04-10T04:16:14.848Z,5.81
2023-04-10T04:17:23.469Z,5.80
2023-04-10T04:18:52.138Z,5.78
2023-04-10T04:20:03.669Z,5.80
2023-04-10T04:21:18.179Z,5.81
2023-04-10T04:22:38.940Z,5.86
2023-04-10T04:24:12.776Z,5.68
2023-04-10T04:25:36.781Z,5.71
2023-04-10T04:26:57.908Z,5.81
2023-04-10T04:28:23.480Z,5.74
2023-04-10T04:29:52.020Z,5.69
2023-04-10T04:31:09.419Z,5.62
2023-04-10T04:32:30.321Z,5.75
2023-04-10T04:33:42.674Z,5.61
2023-04-10T04:35:03.786Z,5.54
2023-04-10T04:36:38.594Z,5.52
2023-04-10T04:38:10.629Z,5.48
2023-04-10T04:39:39.431Z,5.41
2023-04-10T04:40:59.838Z,5.37
2023-04-10T04:42:21.325Z,5.32
2023-04-10T04:43:38.951Z,5.31
2023-04-10T04:45:04.170Z,5.37
2023-04-10T04:46:35.712Z,5.34
2023-04-10T04:47:56.920Z,5.38
2023-04-10T04:49:09.809Z,5.38
2023-04-10T04:50:23.117Z,5.42
2023-04-10T04:51:41.003Z,5.37
2023-04-10T04:52:49.041Z,5.40
2023-04-10T04:54:00.797Z,5.40
2023-04-10T04:55:29.721Z,5.42
2023-04-10T04:56:45.804Z,5.48
2023-04-10T04:58:21.323Z,5.62
2023-04-10T04:59:42.204Z,5.70
2023-04-10T05:00:56.890Z,5.79
2023-04-10T05:02:23.218Z,5.83
2023-04-10T05:03:52.205Z,5.87
2023-04-10T05:05:11.962Z,5.98
2023-04-10T05:06:41.017Z,6.00
2023-04-10T05:08:03.811Z,6.07
2023-04-10T05:09:21.931Z,6.09
2023-04-10T05:10:42.809Z,6.28
2023-04-10T05:11:57.334Z,6.25
2023-04-10T05:13:19.769Z,6.25
2023-04-10T05:14:30.450Z,6.27
2023-04-10T05:15:44.937Z,6.34
2023-04-10T05:17:07.534Z,6.38
2023-04-10T05:18:26.085Z,6.41
2023-04-10T05:19:51.942Z,6.40
2023-04-10T05:21:23.500Z,6.40
2023-04-10T05:22:41.737Z,6.46
2023-04-10T05:24:02.739Z,6.46
2023-04-10T05:25:34.297Z,6.52
2023-04-10T05:26:52.779Z,6.54
2023-04-10T05:28:18.597Z,6.66
2023-04-10T05:29:36.574Z,6.72
2023-04-10T05:30:52.434Z,6.74
2023-04-10T05:32:10.185Z,6.89
2023-04-10T05:33:31.062Z,6.93
2023-04-10T05:34:57.828Z,6.98
2023-04-10T05:36:23.152Z,7.05
2023-04-10T05:37:44.027Z,7.35
2023-04-10T05:39:08.626Z,7.25
2023-04-10T05:40:29.384Z,7.39
2023-04-10T05:41:52.091Z,7.45
2023-04-10T05:43:26.746Z,7.51
2023-04-10T05:44:36.476Z,7.62
2023-04-10T05:45:56.305Z,7.80
2023-04-10T05:47:19.833Z,7.90
2023-04-10T05:48:31.869Z,7.95
2023-04-10T05:49:51.594Z,8.14
2023-04-10T05:51:14.395Z,8.23
2023-04-10T05:52:52.201Z,8.39
2023-04-10T05:54:17.773Z,8.40
2023-04-10T05:55:32.162Z,8.67
2023-04-10T05:56:59.395Z,8.76
2023-04-10T05:58:10.922Z,8.81
2023-04-10T05:59:35.759Z,8.93
2023-04-10T06:01:01.560Z,9.09
2023-04-10T06:02:39.805Z,8.96
2023-04-10T06:03:46.374Z,9.01
2023-04-10T06:04:50.259Z,9.05
2023-04-10T06:05:53.640Z,9.09
2023-04-10T06:06:56.161Z,9.19
2023-04-10T06:07:58.727Z,9.21
2023-04-10T06:09:01.329Z,9.34
2023-04-10T06:10:04.214Z,9.45
2023-04-10T06:11:10.804Z,9.35
2023-04-10T06:12:13.449Z,9.36
2023-04-10T06:13:16.810Z,9.38
2023-04-10T06:14:22.101Z,9.57
2023-04-10T06:15:26.420Z,9.57
2023-04-10T06:16:29.053Z,9.54
2023-04-10T06:17:31.636Z,9.56
2023-04-10T06:18:34.335Z,9.66
2023-04-10T06:19:36.737Z,9.61
2023-04-10T06:20:39.255Z,9.73
2023-04-10T06:21:41.771Z,9.71
2023-04-10T06:22:44.299Z,9.95
2023-04-10T06:23:47.055Z,9.99
2023-04-10T06:24:49.583Z,10.06
2023-04-10T06:25:52.210Z,10.37
2023-04-10T06:26:54.617Z,10.54
2023-04-10T06:27:57.382Z,10.53
2023-04-10T06:29:00.498Z,10.70
2023-04-10T06:30:03.257Z,10.80
2023-04-10T06:31:09.159Z,11.16
2023-04-10T06:32:14.782Z,11.07
2023-04-10T06:33:17.309Z,11.16
2023-04-10T06:34:21.139Z,11.19
2023-04-10T06:35:37.815Z,11.41
2023-04-10T06:36:40.821Z,11.50
2023-04-10T06:37:43.833Z,11.47
2023-04-10T06:38:46.473Z,11.53
2023-04-10T06:39:49.361Z,11.58
2023-04-10T06:40:51.873Z,11.76
2023-04-10T06:41:54.535Z,11.97
2023-04-10T06:43:23.188Z,12.17
2023-04-10T06:44:25.713Z,12.41
2023-04-10T06:45:28.240Z,12.12
2023-04-10T06:46:30.913Z,12.44
2023-04-10T06:47:33.664Z,12.63
2023-04-10T06:48:36.279Z,12.76
2023-04-10T06:49:38.793Z,13.05
2023-04-10T06:50:41.435Z,12.94
2023-04-10T06:51:45.885Z,13.10
2023-04-10T06:52:48.659Z,13.41
2023-04-10T06:53:51.156Z,13.52
2023-04-10T06:54:53.684Z,13.93
2023-04-10T06:55:57.185Z,14.14
2023-04-10T06:56:59.680Z,14.31
2023-04-10T06:58:02.110Z,14.36
2023-04-10T06:59:06.534Z,14.62
2023-04-10T07:00:09.641Z,14.74
2023-04-10T07:01:12.184Z,14.72
2023-04-10T07:02:14.750Z,15.05
2023-04-10T07:03:17.242Z,15.23
2023-04-10T07:04:19.844Z,15.35
2023-04-10T07:05:22.498Z,15.36
2023-04-10T07:06:25.008Z,15.48
2023-04-10T07:07:28.608Z,15.42
2023-04-10T07:08:31.126Z,15.87
2023-04-10T07:09:33.526Z,16.17
2023-04-10T07:10:36.407Z,15.59
2023-04-10T07:11:38.939Z,15.85
2023-04-10T07:12:41.449Z,15.53
2023-04-10T07:13:43.851Z,15.64
2023-04-10T07:14:46.262Z,15.74
2023-04-10T07:15:48.771Z,16.35
2023-04-10T07:16:51.486Z,17.27
2023-04-10T07:17:53.986Z,17.16
2023-04-10T07:18:56.850Z,17.55
2023-04-10T07:19:59.573Z,18.02
2023-04-10T07:21:02.454Z,18.78
2023-04-10T07:22:04.982Z,19.50
2023-04-10T07:23:07.502Z,19.05
2023-04-10T07:24:09.904Z,19.58
2023-04-10T07:25:12.442Z,20.40
2023-04-10T07:26:15.063Z,20.97
2023-04-10T07:27:17.576Z,21.20
2023-04-10T07:28:19.979Z,21.09
2023-04-10T07:29:22.383Z,20.34
2023-04-10T07:30:24.906Z,20.23
2023-04-10T07:31:28.262Z,19.16
2023-04-10T07:32:31.038Z,18.81
2023-04-10T07:33:33.691Z,18.24
2023-04-10T07:34:36.784Z,17.62
2023-04-10T07:35:39.223Z,17.39
2023-04-10T07:36:41.709Z,17.22
2023-04-10T07:37:44.362Z,17.03
2023-04-10T07:38:46.993Z,16.80
2023-04-10T07:39:49.391Z,16.65
2023-04-10T07:41:01.275Z,16.21
2023-04-10T07:42:03.923Z,15.57
2023-04-10T07:43:06.320Z,15.38
2023-04-10T07:44:09.071Z,15.51
2023-04-10T07:45:11.710Z,15.73
2023-04-10T07:46:14.420Z,15.62
2023-04-10T07:47:16.991Z,15.93
2023-04-10T07:48:19.640Z,15.75
2023-04-10T07:49:22.998Z,15.93
2023-04-10T07:50:25.797Z,15.73
2023-04-10T07:51:29.150Z,15.86
2023-04-10T07:52:31.657Z,16.00
2023-04-10T07:53:34.158Z,16.12
2023-04-10T07:54:36.826Z,16.10
2023-04-10T07:55:43.548Z,16.30
2023-04-10T07:56:46.174Z,16.20
2023-04-10T07:57:52.397Z,16.29
2023-04-10T07:58:55.253Z,16.58
2023-04-10T07:59:58.037Z,16.71
2023-04-10T08:01:00.566Z,16.77
2023-04-10T08:02:03.207Z,16.77
2023-04-10T08:03:06.817Z,16.96
2023-04-10T08:04:09.703Z,16.43
2023-04-10T08:05:12.468Z,16.80
2023-04-10T08:06:15.087Z,16.43
2023-04-10T08:07:21.445Z,16.67
2023-04-10T08:08:23.854Z,16.76
2023-04-10T08:09:26.491Z,16.69
2023-04-10T08:10:29.008Z,16.45
2023-04-10T08:11:35.283Z,16.50
2023-04-10T08:12:39.094Z,16.17
2023-04-10T08:13:41.485Z,16.56
2023-04-10T08:14:45.109Z,16.88
2023-04-10T08:15:47.609Z,16.46
2023-04-10T08:16:50.138Z,16.63
2023-04-10T08:17:54.013Z,16.42
2023-04-10T08:18:58.056Z,16.64
2023-04-10T08:20:00.700Z,16.51
2023-04-10T08:21:03.227Z,16.63
2023-04-10T08:22:06.091Z,16.90
2023-04-10T08:23:19.642Z,17.12
2023-04-10T08:24:23.492Z,17.41
2023-04-10T08:25:26.010Z,17.90
2023-04-10T08:26:29.404Z,18.03
2023-04-10T08:27:31.894Z,18.25
2023-04-10T08:28:34.417Z,18.39
2023-04-10T08:29:36.824Z,18.22
2023-04-10T08:30:39.566Z,18.51
2023-04-10T08:31:42.221Z,18.56
2023-04-10T08:32:44.666Z,18.57
2023-04-10T08:33:47.860Z,18.21
2023-04-10T08:34:51.346Z,18.23
2023-04-10T08:35:54.008Z,18.24
2023-04-10T08:36:57.353Z,18.05
2023-04-10T08:38:12.292Z,17.94
2023-04-10T08:39:16.310Z,17.94
2023-04-10T08:40:18.828Z,17.84
2023-04-10T08:41:22.203Z,17.46
2023-04-10T08:42:26.048Z,17.61
2023-04-10T08:43:28.908Z,17.39
2023-04-10T08:44:31.434Z,17.19
2023-04-10T08:45:34.084Z,17.32
2023-04-10T08:46:42.158Z,17.70
2023-04-10T08:47:48.295Z,17.62
2023-04-10T08:49:00.838Z,18.05
2023-04-10T08:50:07.236Z,17.89
2023-04-10T08:51:19.801Z,18.19
2023-04-10T08:52:25.795Z,18.40
2023-04-10T08:53:31.191Z,18.52
2023-04-10T08:54:36.124Z,18.19
2023-04-10T08:55:40.580Z,18.43
2023-04-10T08:56:47.174Z,18.09
2023-04-10T08:58:00.571Z,17.97
2023-04-10T08:59:04.206Z,17.95
2023-04-10T09:01:30.043Z,18.91
2023-04-10T09:02:32.646Z,19.04
2023-04-10T09:03:35.622Z,18.90
2023-04-10T09:04:38.469Z,18.67
2023-04-10T09:05:41.184Z,18.94
2023-04-10T09:06:43.940Z,18.90
2023-04-10T09:07:46.449Z,18.72
2023-04-10T09:08:48.976Z,18.68
2023-04-10T09:09:51.480Z,18.80
2023-04-10T09:10:54.558Z,18.71
2023-04-10T09:12:01.549Z,18.39
2023-04-10T09:13:04.346Z,18.24
2023-04-10T09:14:22.097Z,18.23
2023-04-10T09:15:24.728Z,18.37
2023-04-10T09:16:30.485Z,18.35
2023-04-10T09:17:33.915Z,18.32
2023-04-10T09:18:44.290Z,18.57
2023-04-10T09:19:54.502Z,18.55
2023-04-10T09:21:07.084Z,18.43
2023-04-10T09:22:11.287Z,18.22
2023-04-10T09:23:22.328Z,18.73
2023-04-10T09:24:26.199Z,18.75
2023-04-10T09:25:33.248Z,18.48
2023-04-10T09:26:36.615Z,18.41
2023-04-10T09:27:40.491Z,18.73
2023-04-10T09:29:02.575Z,19.28
2023-04-10T09:30:06.836Z,19.17
2023-04-10T09:31:35.968Z,19.00
2023-04-10T09:32:46.763Z,18.55
2023-04-10T09:33:49.093Z,18.63
2023-04-10T09:34:58.577Z,18.92
2023-04-10T09:36:01.528Z,18.88
2023-04-10T09:37:03.993Z,19.37
2023-04-10T09:38:22.053Z,19.12
2023-04-10T09:39:36.144Z,19.41
2023-04-10T09:40:38.663Z,19.20
2023-04-10T09:41:51.688Z,19.65
2023-04-10T09:42:56.225Z,19.80
2023-04-10T09:44:20.186Z,19.61
2023-04-10T09:45:23.133Z,19.47
2023-04-10T09:46:28.912Z,19.80
2023-04-10T09:47:31.897Z,19.67
2023-04-10T09:48:34.582Z,20.41
2023-04-10T09:49:48.434Z,21.10
2023-04-10T09:50:51.507Z,21.59
2023-04-10T09:51:53.929Z,22.06
2023-04-10T09:52:59.077Z,22.67
2023-04-10T09:54:03.045Z,23.55
2023-04-10T09:55:08.680Z,24.17
2023-04-10T09:56:11.670Z,24.55
2023-04-10T09:57:20.551Z,24.01
2023-04-10T09:58:25.373Z,23.44
2023-04-10T09:59:27.990Z,23.52
2023-04-10T10:00:30.392Z,22.64
2023-04-10T10:01:37.297Z,22.53
2023-04-10T10:02:40.644Z,22.57
2023-04-10T10:03:44.109Z,22.63
2023-04-10T10:04:48.264Z,21.86
2023-04-10T10:05:51.924Z,22.29
2023-04-10T10:06:55.000Z,21.56
2023-04-10T10:07:58.121Z,22.13
2023-04-10T10:09:05.342Z,22.36
2023-04-10T10:10:11.101Z,22.00
2023-04-10T10:11:15.888Z,21.86
2023-04-10T10:12:40.597Z,21.70
2023-04-10T10:13:57.078Z,20.69
2023-04-10T10:15:19.965Z,20.69
2023-04-10T10:16:25.870Z,21.18
2023-04-10T10:17:34.872Z,21.09
2023-04-10T10:18:45.887Z,21.30
2023-04-10T10:20:02.482Z,20.96
2023-04-10T10:21:05.689Z,21.12
2023-04-10T10:22:09.888Z,21.28
2023-04-10T10:23:13.735Z,21.55
2023-04-10T10:24:17.232Z,22.22
2023-04-10T10:25:22.986Z,22.56
2023-04-10T10:26:25.857Z,22.21
2023-04-10T10:27:31.973Z,21.31
2023-04-10T10:28:36.175Z,20.94
2023-04-10T10:29:39.776Z,20.84
2023-04-10T10:30:42.668Z,21.08
2023-04-10T10:31:47.174Z,20.92
2023-04-10T10:32:51.087Z,21.11
2023-04-10T10:33:54.692Z,21.16
2023-04-10T10:34:57.780Z,21.31
2023-04-10T10:36:01.510Z,21.24
2023-04-10T10:37:05.225Z,21.36
2023-04-10T10:38:08.343Z,21.11
2023-04-10T10:39:27.544Z,21.40
2023-04-10T10:40:41.507Z,21.38
2023-04-10T10:41:54.347Z,20.99
2023-04-10T10:43:19.869Z,21.22
2023-04-10T10:44:43.144Z,20.77
2023-04-10T10:45:57.621Z,20.56
2023-04-10T10:47:29.248Z,20.63
2023-04-10T10:48:31.761Z,20.43
2023-04-10T10:49:57.087Z,21.03
2023-04-10T10:51:02.284Z,21.69
2023-04-10T10:52:04.994Z,22.03
2023-04-10T10:53:07.513Z,22.38
2023-04-10T10:54:33.193Z,22.73
2023-04-10T10:55:35.724Z,22.27
2023-04-10T10:56:38.243Z,21.85
2023-04-10T10:57:47.604Z,21.97
2023-04-10T10:58:59.840Z,21.76
2023-04-10T11:00:02.611Z,21.76
2023-04-10T11:01:08.507Z,21.95
2023-04-10T11:02:19.063Z,21.13
2023-04-10T11:03:22.671Z,20.22
2023-04-10T11:04:48.461Z,19.93
2023-04-10T11:06:13.042Z,20.67
2023-04-10T11:07:16.773Z,20.76
2023-04-10T11:08:47.667Z,20.87
2023-04-10T11:09:54.930Z,20.50
2023-04-10T11:11:08.066Z,19.99
2023-04-10T11:12:10.887Z,20.09
2023-04-10T11:13:17.984Z,20.20
2023-04-10T11:14:21.618Z,19.78
2023-04-10T11:15:25.531Z,19.82
2023-04-10T11:16:31.738Z,19.78
2023-04-10T11:17:51.403Z,19.38
2023-04-10T11:19:06.337Z,19.34
2023-04-10T11:20:17.013Z,19.31
2023-04-10T11:21:23.401Z,19.46
2023-04-10T11:22:26.021Z,19.45
2023-04-10T11:23:28.566Z,19.51
2023-04-10T11:25:00.732Z,19.57
2023-04-10T11:26:03.699Z,19.62
2023-04-10T11:27:07.188Z,19.66
2023-04-10T11:28:09.695Z,19.56
2023-04-10T11:29:17.885Z,19.48
2023-04-10T11:30:30.585Z,20.03
2023-04-10T11:31:34.358Z,20.56
2023-04-10T11:32:43.450Z,21.16
2023-04-10T11:33:48.002Z,21.66
2023-04-10T11:34:50.615Z,22.01
2023-04-10T11:35:53.168Z,21.89
2023-04-10T11:36:55.898Z,21.94
2023-04-10T11:38:11.626Z,22.29
2023-04-10T11:39:18.752Z,22.41
2023-04-10T11:40:21.577Z,22.10
2023-04-10T11:41:32.158Z,22.67
2023-04-10T11:42:34.656Z,22.21
2023-04-10T11:43:37.301Z,22.35
2023-04-10T11:44:40.922Z,22.56
2023-04-10T11:45:43.616Z,22.77
2023-04-10T11:46:47.421Z,23.30
2023-04-10T11:47:54.130Z,23.03
2023-04-10T11:49:01.474Z,22.84
2023-04-10T11:50:04.186Z,22.70
2023-04-10T11:51:08.768Z,22.90
2023-04-10T11:52:11.268Z,22.37
2023-04-10T11:53:21.626Z,22.80
2023-04-10T11:54:29.158Z,22.14
2023-04-10T11:55:38.391Z,22.49
2023-04-10T11:56:42.346Z,23.11
2023-04-10T11:57:46.127Z,23.41
2023-04-10T11:58:51.165Z,23.46
2023-04-10T11:59:53.752Z,22.92
2023-04-10T12:01:01.674Z,22.78
2023-04-10T12:02:14.731Z,23.29
2023-04-10T12:03:17.737Z,23.02
2023-04-10T12:04:21.989Z,22.78
2023-04-10T12:05:24.602Z,23.04
2023-04-10T12:06:31.312Z,23.07
2023-04-10T12:07:33.834Z,22.62
2023-04-10T12:08:46.099Z,22.21
2023-04-10T12:09:56.994Z,21.70
2023-04-10T12:11:00.479Z,21.88
2023-04-10T12:12:07.660Z,21.92
2023-04-10T12:13:25.206Z,21.23
2023-04-10T12:14:33.120Z,21.49
2023-04-10T12:15:35.694Z,21.91
2023-04-10T12:16:38.521Z,21.46
2023-04-10T12:17:41.439Z,21.67
2023-04-10T12:18:45.417Z,22.23
2023-04-10T12:19:47.884Z,22.16
2023-04-10T12:20:51.964Z,22.07
2023-04-10T12:21:55.223Z,21.45
2023-04-10T12:23:01.382Z,21.20
2023-04-10T12:24:05.527Z,21.18
2023-04-10T12:25:12.382Z,21.36
2023-04-10T12:26:16.804Z,21.40
2023-04-10T12:27:25.579Z,21.34
2023-04-10T12:28:28.093Z,21.35
2023-04-10T12:29:30.608Z,21.09
2023-04-10T12:30:33.134Z,21.38
2023-04-10T12:31:37.194Z,21.70
2023-04-10T12:32:39.994Z,21.81
2023-04-10T12:33:46.580Z,21.89
2023-04-10T12:34:52.829Z,21.39
2023-04-10T12:35:55.477Z,20.89
2023-04-10T12:36:58.219Z,20.86
2023-04-10T12:38:00.741Z,20.57
2023-04-10T12:39:04.610Z,20.35
2023-04-10T12:40:07.944Z,20.39
2023-04-10T12:41:11.499Z,20.32
2023-04-10T12:42:20.913Z,20.63
2023-04-10T12:43:38.424Z,20.95
2023-04-10T12:44:54.759Z,21.02
2023-04-10T12:45:57.999Z,21.11
2023-04-10T12:47:02.008Z,21.51
2023-04-10T12:48:04.646Z,21.37
2023-04-10T12:49:10.109Z,21.14
2023-04-10T12:50:15.633Z,20.99
2023-04-10T12:51:18.272Z,20.99
2023-04-10T12:52:23.575Z,21.09
2023-04-10T12:53:27.397Z,20.82
2023-04-10T12:54:37.365Z,20.86
2023-04-10T12:55:40.241Z,20.35
2023-04-10T12:56:44.329Z,20.77
2023-04-10T12:57:49.006Z,20.65
2023-04-10T12:59:09.161Z,20.81
2023-04-10T13:00:13.956Z,20.54
2023-04-10T13:01:16.496Z,20.45
2023-04-10T13:02:21.386Z,20.50
2023-04-10T13:03:24.247Z,20.70
2023-04-10T13:04:27.169Z,20.86
2023-04-10T13:05:30.161Z,20.63
2023-04-10T13:06:32.917Z,20.62
2023-04-10T13:07:37.423Z,20.57
2023-04-10T13:08:40.001Z,20.26
2023-04-10T13:09:42.879Z,20.26
2023-04-10T13:10:45.528Z,20.43
2023-04-10T13:11:50.243Z,20.69
2023-04-10T13:12:54.279Z,20.94
2023-04-10T13:13:56.802Z,21.09
2023-04-10T13:14:59.918Z,21.09
2023-04-10T13:16:02.623Z,20.80
2023-04-10T13:17:05.208Z,20.64
2023-04-10T13:18:08.394Z,20.76
2023-04-10T13:19:10.967Z,20.73
2023-04-10T13:20:13.727Z,20.35
2023-04-10T13:21:19.964Z,20.25
2023-04-10T13:22:22.726Z,20.11
2023-04-10T13:23:25.387Z,20.11
2023-04-10T13:24:27.888Z,19.91
2023-04-10T13:25:33.851Z,19.75
2023-04-10T13:26:36.403Z,19.71
2023-04-10T13:27:38.946Z,19.28
2023-04-10T13:28:41.452Z,19.36
2023-04-10T13:29:43.978Z,19.40
2023-04-10T13:30:46.495Z,19.34
2023-04-10T13:31:50.673Z,19.25
2023-04-10T13:32:53.105Z,19.49
2023-04-10T13:33:55.670Z,19.69
2023-04-10T13:34:58.020Z,19.55
2023-04-10T13:36:00.674Z,19.15
2023-04-10T13:37:03.379Z,19.19
2023-04-10T13:38:06.916Z,19.20
2023-04-10T13:39:09.316Z,19.07
2023-04-10T13:40:12.061Z,19.08
2023-04-10T13:41:14.593Z,19.01
2023-04-10T13:42:17.223Z,19.09
2023-04-10T13:43:19.750Z,18.96
2023-04-10T13:44:22.268Z,18.96
2023-04-10T13:45:25.039Z,19.09
2023-04-10T13:46:27.956Z,19.20
2023-04-10T13:47:30.723Z,19.27
2023-04-10T13:48:39.978Z,19.48
2023-04-10T13:49:44.105Z,19.73
2023-04-10T13:50:46.878Z,19.82
2023-04-10T13:51:49.388Z,19.93
2023-04-10T13:52:53.408Z,20.05
2023-04-10T13:53:56.233Z,19.89
2023-04-10T13:54:58.753Z,20.05
2023-04-10T13:56:01.288Z,19.91
2023-04-10T13:57:03.974Z,20.04
2023-04-10T13:58:07.271Z,19.70
2023-04-10T13:59:10.043Z,19.66
2023-04-10T14:00:12.915Z,19.66
2023-04-10T14:01:15.468Z,19.41
2023-04-10T14:02:18.016Z,19.37
2023-04-10T14:03:20.800Z,19.43
2023-04-10T14:04:23.366Z,19.54
2023-04-10T14:05:25.883Z,19.76
2023-04-10T14:06:28.411Z,19.74
2023-04-10T14:07:31.038Z,19.80
2023-04-10T14:08:33.565Z,19.83
2023-04-10T14:09:35.966Z,19.71
2023-04-10T14:10:39.696Z,19.64
2023-04-10T14:11:42.200Z,19.52
2023-04-10T14:12:44.486Z,19.40
2023-04-10T14:13:47.029Z,19.45
2023-04-10T14:14:49.520Z,19.26
2023-04-10T14:15:54.565Z,19.23
2023-04-10T14:16:57.184Z,19.21
2023-04-10T14:18:00.008Z,19.29
2023-04-10T14:19:02.485Z,19.38
2023-04-10T14:20:05.380Z,19.62
2023-04-10T14:21:08.125Z,19.55
2023-04-10T14:22:10.795Z,19.66
2023-04-10T14:23:18.529Z,19.86
2023-04-10T14:24:21.806Z,19.78
2023-04-10T14:25:24.328Z,19.62
2023-04-10T14:26:27.215Z,19.49
2023-04-10T14:27:29.726Z,19.63
2023-04-10T14:28:32.726Z,19.46
2023-04-10T14:29:40.589Z,19.33
2023-04-10T14:30:48.926Z,19.20
2023-04-10T14:31:58.099Z,19.28
2023-04-10T14:33:01.012Z,19.33
2023-04-10T14:34:03.576Z,19.36
2023-04-10T14:35:06.589Z,19.38
2023-04-10T14:36:09.649Z,19.18
2023-04-10T14:37:13.563Z,19.01
2023-04-10T14:38:17.616Z,19.05
2023-04-10T14:39:20.372Z,19.23
2023-04-10T14:40:22.894Z,19.16